createdAt,value
2019-05-25T00:04:55.244Z,98645.36
2019-05-25T00:10:02.694Z,98643.45
2019-05-25T00:15:10.521Z,98648.25
2019-05-25T00:20:18.057Z,98644.28
2019-05-25T00:25:25.423Z,98647.70
2019-05-25T00:30:32.868Z,98646.56
2019-05-25T00:35:40.280Z,98641.75
2019-05-25T00:40:47.702Z,98632.99
2019-05-25T00:45:55.111Z,98632.39
2019-05-25T00:51:02.580Z,98628.15
2019-05-25T00:56:09.960Z,98626.86
2019-05-25T01:01:17.347Z,98632.98
2019-05-25T01:06:24.685Z,98627.32
2019-05-25T01:11:31.977Z,98633.95
2019-05-25T01:16:39.369Z,98638.25
2019-05-25T01:21:46.781Z,98639.84
2019-05-25T01:26:54.162Z,98635.20
2019-05-25T01:32:01.562Z,98641.30
2019-05-25T01:37:08.842Z,98637.35
2019-05-25T01:42:16.314Z,98639.18
2019-05-25T01:47:23.653Z,98637.84
2019-05-25T01:52:31.108Z,98640.21
2019-05-25T01:57:38.467Z,98649.91
2019-05-25T02:02:45.828Z,98651.20
2019-05-25T02:07:53.169Z,98649.94
2019-05-25T02:13:00.663Z,98646.33
2019-05-25T02:18:08.006Z,98655.78
2019-05-25T02:23:15.317Z,98655.91
2019-05-25T02:28:22.669Z,98655.59
2019-05-25T02:33:30.160Z,98652.89
2019-05-25T02:38:37.649Z,98661.52
2019-05-25T02:43:45.648Z,98653.95
2019-05-25T02:48:53.206Z,98652.72
2019-05-25T02:54:00.659Z,98653.34
2019-05-25T02:59:07.973Z,98649.11
2019-05-25T03:04:15.415Z,98659.05
2019-05-25T03:09:24.316Z,98665.91
2019-05-25T03:14:31.674Z,98676.66
2019-05-25T03:19:39.082Z,98671.70
2019-05-25T03:24:46.492Z,98681.30
2019-05-25T03:29:53.832Z,98678.86
2019-05-25T03:35:01.281Z,98678.86
2019-05-25T03:40:09.387Z,98686.95
2019-05-25T03:45:18.079Z,98696.48
2019-05-25T03:50:25.573Z,98701.61
2019-05-25T03:55:33.070Z,98700.06
2019-05-25T04:00:41.141Z,98704.29
2019-05-25T04:05:48.602Z,98707.25
2019-05-25T04:10:55.997Z,98698.56
2019-05-25T04:16:03.376Z,98708.98
2019-05-25T04:21:13.158Z,98706.78
2019-05-25T04:26:22.907Z,98713.70
2019-05-25T04:31:29.631Z,98720.82
2019-05-25T04:36:37.096Z,98717.87
2019-05-25T04:41:44.436Z,98718.67
2019-05-25T04:46:51.826Z,98722.63
2019-05-25T04:51:59.179Z,98726.33
2019-05-25T04:57:06.653Z,98725.79
2019-05-25T05:02:14.113Z,98732.93
2019-05-25T05:07:21.427Z,98734.44
2019-05-25T05:12:28.825Z,98733.13
2019-05-25T05:17:38.286Z,98729.34
2019-05-25T05:22:45.640Z,98734.12
2019-05-25T05:27:53.017Z,98743.30
2019-05-25T05:33:00.475Z,98747.59
2019-05-25T05:38:08.242Z,98748.94
2019-05-25T05:43:17.081Z,98755.81
2019-05-25T05:48:28.592Z,98751.41
2019-05-25T05:53:40.381Z,98755.34
2019-05-25T05:58:47.711Z,98757.46
2019-05-25T06:03:55.162Z,98758.18
2019-05-25T06:09:02.541Z,98752.36
2019-05-25T06:14:10.019Z,98757.91
2019-05-25T06:19:17.584Z,98767.39
2019-05-25T06:24:25.208Z,98776.64
2019-05-25T06:29:32.745Z,98776.72
2019-05-25T06:34:40.402Z,98773.64
2019-05-25T06:39:47.817Z,98772.11
2019-05-25T06:44:55.285Z,98773.21
2019-05-25T06:50:03.621Z,98783.06
2019-05-25T06:55:12.081Z,98788.64
2019-05-25T07:00:58.439Z,98787.66
2019-05-25T07:06:06.929Z,98797.37
2019-05-25T07:11:14.352Z,98799.63
2019-05-25T07:16:21.708Z,98812.85
2019-05-25T07:21:29.119Z,98807.88
2019-05-25T07:26:36.595Z,98805.60
2019-05-25T07:31:44.016Z,98810.36
2019-05-25T07:36:51.457Z,98816.52
2019-05-25T07:41:58.861Z,98817.85
2019-05-25T07:47:06.173Z,98821.19
2019-05-25T07:52:13.726Z,98821.17
2019-05-25T07:57:21.140Z,98823.65
2019-05-25T08:02:28.727Z,98826.48
2019-05-25T08:07:36.091Z,98828.28
2019-05-25T08:12:43.321Z,98837.75
2019-05-25T08:17:50.770Z,98847.19
2019-05-25T08:22:58.216Z,98844.67
2019-05-25T08:28:05.577Z,98848.05
2019-05-25T08:33:13.035Z,98837.38
2019-05-25T08:38:30.137Z,98840.02
2019-05-25T08:43:37.552Z,98835.77
2019-05-25T08:48:44.927Z,98837.03
2019-05-25T08:53:52.472Z,98836.77
2019-05-25T08:59:00.050Z,98834.81
2019-05-25T09:04:07.487Z,98835.55
2019-05-25T09:09:14.972Z,98836.41
2019-05-25T09:14:22.349Z,98845.49
2019-05-25T09:19:29.795Z,98838.53
2019-05-25T09:24:37.211Z,98835.77
2019-05-25T09:29:44.639Z,98837.86
2019-05-25T09:34:52.027Z,98839.28
2019-05-25T09:39:59.500Z,98843.68
2019-05-25T09:45:09.224Z,98835.82
2019-05-25T09:50:16.771Z,98841.17
2019-05-25T09:55:24.229Z,98845.55
2019-05-25T10:00:32.190Z,98848.12
2019-05-25T10:05:39.632Z,98852.56
2019-05-25T10:10:47.081Z,98848.24
2019-05-25T10:15:54.413Z,98843.69
2019-05-25T10:21:01.840Z,98844.17
2019-05-25T10:26:09.177Z,98838.67
2019-05-25T10:31:16.614Z,98847.89
2019-05-25T10:36:23.957Z,98851.16
2019-05-25T10:41:31.440Z,98848.20
2019-05-25T10:46:38.860Z,98837.34
2019-05-25T10:51:46.254Z,98836.81
2019-05-25T10:56:53.677Z,98833.20
2019-05-25T11:02:01.017Z,98833.88
2019-05-25T11:07:08.526Z,98832.91
2019-05-25T11:12:15.881Z,98826.00
2019-05-25T11:17:23.323Z,98827.09
2019-05-25T11:22:30.834Z,98822.48
2019-05-25T11:27:38.332Z,98827.09
2019-05-25T11:32:45.821Z,98815.12
2019-05-25T11:37:53.248Z,98815.06
2019-05-25T11:43:00.683Z,98808.25
2019-05-25T11:48:08.189Z,98813.69
2019-05-25T11:53:15.743Z,98812.86
2019-05-25T11:58:23.205Z,98808.20
2019-05-25T12:03:30.597Z,98812.16
2019-05-25T12:08:38.083Z,98813.18
2019-05-25T12:13:45.575Z,98805.59
2019-05-25T12:18:53.177Z,98816.33
2019-05-25T12:24:00.608Z,98811.58
2019-05-25T12:29:08.012Z,98803.95
2019-05-25T12:34:15.925Z,98803.38
2019-05-25T12:39:26.489Z,98807.98
2019-05-25T12:44:34.364Z,98805.70
2019-05-25T12:49:50.682Z,98794.20
2019-05-25T12:54:51.462Z,98792.13
2019-05-25T13:00:14.110Z,98800.49
2019-05-25T13:05:08.725Z,98797.72
2019-05-25T13:10:16.554Z,98799.76
2019-05-25T13:15:24.032Z,98795.61
2019-05-25T13:20:31.358Z,98797.74
2019-05-25T13:25:38.759Z,98792.48
2019-05-25T13:30:46.196Z,98786.63
2019-05-25T13:35:53.634Z,98781.73
2019-05-25T13:41:02.023Z,98786.84
2019-05-25T13:46:09.389Z,98784.27
2019-05-25T13:51:16.898Z,98788.17
2019-05-25T13:56:24.395Z,98786.16
2019-05-25T14:01:56.589Z,98782.46
2019-05-25T14:07:04.429Z,98788.55
2019-05-25T14:12:11.877Z,98788.75
2019-05-25T14:17:19.855Z,98787.64
2019-05-25T14:22:27.653Z,98788.03
2019-05-25T14:27:35.021Z,98787.20
2019-05-25T14:32:42.766Z,98787.30
2019-05-25T14:43:35.607Z,98780.46
2019-05-25T14:48:46.632Z,98778.50
2019-05-25T14:53:54.464Z,98773.63
2019-05-25T14:59:02.288Z,98775.53
2019-05-25T15:04:09.798Z,98776.67
2019-05-25T15:09:17.565Z,98782.80
2019-05-25T15:14:25.065Z,98776.86
2019-05-25T15:19:32.516Z,98776.14
2019-05-25T15:24:42.514Z,98765.00
2019-05-25T15:29:50.286Z,98761.42
2019-05-25T15:35:20.680Z,98766.26
2019-05-25T15:40:29.678Z,98764.31
2019-05-25T15:45:38.409Z,98765.13
2019-05-25T15:51:14.792Z,98765.18
2019-05-25T15:56:22.260Z,98762.11
2019-05-25T16:01:30.034Z,98763.02
2019-05-25T16:07:29.536Z,98759.03
2019-05-25T16:18:32.235Z,98761.45
2019-05-25T16:23:40.018Z,98752.86
2019-05-25T16:28:53.305Z,98744.64
2019-05-25T16:34:18.433Z,98752.82
2019-05-25T16:45:49.408Z,98762.17
2019-05-25T16:57:11.236Z,98759.60
2019-05-25T17:08:24.698Z,98775.81
2019-05-25T17:13:33.737Z,98769.62
2019-05-25T17:19:02.323Z,98779.77
2019-05-25T17:24:17.768Z,98778.29
2019-05-25T17:29:38.353Z,98773.12
2019-05-25T17:35:04.341Z,98775.33
2019-05-25T17:40:41.895Z,98788.33
2019-05-25T17:46:19.250Z,98791.30
2019-05-25T17:57:49.559Z,98783.99
2019-05-25T18:02:54.362Z,98786.98
2019-05-25T18:08:12.319Z,98787.50
2019-05-25T18:13:29.074Z,98789.13
2019-05-25T18:18:35.975Z,98798.91
2019-05-25T18:24:10.526Z,98796.50
2019-05-25T18:29:36.192Z,98797.59
2019-05-25T18:34:50.125Z,98810.02
2019-05-25T18:40:10.138Z,98816.25
2019-05-25T18:51:19.028Z,98818.39
2019-05-25T18:57:10.183Z,98814.03
2019-05-25T19:13:50.112Z,98821.98
2019-05-25T19:19:16.445Z,98836.38
2019-05-25T19:24:43.042Z,98832.69
2019-05-25T19:30:12.818Z,98842.74
2019-05-25T19:35:39.649Z,98848.45
2019-05-25T19:46:27.772Z,98864.06
2019-05-25T19:57:27.366Z,98878.02
2019-05-25T20:02:34.903Z,98877.03
2019-05-25T20:07:42.380Z,98889.13
2019-05-25T20:12:49.888Z,98895.19
2019-05-25T20:17:57.434Z,98896.91
2019-05-25T20:23:04.872Z,98904.70
2019-05-25T20:28:12.450Z,98910.91
2019-05-25T20:33:27.441Z,98915.06
2019-05-25T20:38:29.080Z,98927.53
2019-05-25T20:43:36.507Z,98928.02
2019-05-25T20:48:44.107Z,98945.72
2019-05-25T20:53:51.771Z,98949.98
2019-05-25T20:58:59.191Z,98949.20
2019-05-25T21:04:06.700Z,98955.77
2019-05-25T21:09:14.184Z,98955.92
2019-05-25T21:14:21.631Z,98966.95
2019-05-25T21:19:30.050Z,98967.55
2019-05-25T21:24:37.455Z,98971.13
2019-05-25T21:29:44.927Z,98977.36
2019-05-25T21:34:52.417Z,98977.19
2019-05-25T21:39:59.837Z,98983.89
2019-05-25T21:45:08.443Z,98994.60
2019-05-25T21:50:16.239Z,99003.98
2019-05-25T21:55:23.669Z,99009.13
2019-05-25T22:00:32.738Z,99009.78
2019-05-25T22:05:41.208Z,99019.91
2019-05-25T22:10:48.672Z,99028.86
2019-05-25T22:15:56.115Z,99012.29
2019-05-25T22:21:03.579Z,99026.37
2019-05-25T22:26:10.987Z,99021.74
2019-05-25T22:31:18.396Z,99014.23
2019-05-25T22:36:39.181Z,99010.37
2019-05-25T22:41:34.908Z,99015.80
2019-05-25T22:46:42.340Z,99022.84
2019-05-25T22:51:49.824Z,99014.95
2019-05-25T22:56:57.229Z,99017.90
2019-05-25T23:02:04.745Z,99015.58
2019-05-25T23:07:12.155Z,99017.37
2019-05-25T23:12:19.540Z,99016.37
2019-05-25T23:17:26.854Z,99010.99
2019-05-25T23:22:34.246Z,99020.64
2019-05-25T23:27:41.663Z,99017.09
2019-05-25T23:32:49.059Z,99025.92
2019-05-25T23:37:56.420Z,99028.09
2019-05-25T23:43:03.850Z,99022.70
2019-05-25T23:48:11.293Z,99020.41
2019-05-25T23:53:18.763Z,99000.22
2019-05-25T23:58:26.108Z,99001.72
